LZMC Airport Information

Runway Information
Runway 02 Length 8158 ft width 185 ft
Elevation 0 ft Threshold 0 ft Heading 18
Runway 20 Length 8158 ft Width 185 ft
Elevation 0 ft Threshold 0 ft Heading 198
Airport Frequencies
Type APP Name APP Frequency 118.25 MHZ
Type TWR Name TWR Frequency 118.25 MHZ
Airport Navaids
Type NDB Name Malacky Frequency 477 KHZ
Airport Weather Information & NOTAM
ADDS - METARS form results

(1052 UTC 21 April 2019)
Data provider http://aviationweather.gov/metar/data/
 
Forecast for: LZMC (MALACKY , SK)
Text: TAF LZMC 211030Z 2112/2121 35012KT CAVOK
Forecast period: 1200 to 1500 UTC 21 April 2019
Forecast type: FROM: standard forecast or significant change
Winds: from the N (350 degrees) at 14 MPH (12 knots; 6.2 m/s)
Visibility: 6 or more miles 10+ km)
Ceiling: unknown
Clouds: missing
Weather: NSW  (no significant weather)
Text: BECMG 2115/2117 VRB04KT
Forecast period: 1500 to 2100 UTC 21 April 2019
Forecast type: BECOMING: Conditions expected to become as follows by 1700 UTC 21 April 2019
Winds: variable direction winds at 5 MPH (4 knots; 2.1 m/s)
Visibility: 6 or more miles 10+ km)
Ceiling: unknown
Clouds: missing
Weather: NSW  (no significant weather)